createdAt,value
2022-11-18T00:01:23.525Z,7.40
2022-11-18T00:03:51.466Z,7.30
2022-11-18T00:06:20.616Z,7.30
2022-11-18T00:08:47.999Z,7.20
2022-11-18T00:11:38.609Z,7.10
2022-11-18T00:14:19.081Z,7.20
2022-11-18T00:17:06.880Z,7.10
2022-11-18T00:22:03.175Z,7.00
2022-11-18T00:24:42.185Z,7.00
2022-11-18T00:27:08.908Z,7.00
2022-11-18T00:29:35.668Z,7.00
2022-11-18T00:32:02.362Z,7.10
2022-11-18T00:34:29.118Z,7.10
2022-11-18T00:36:55.957Z,7.10
2022-11-18T00:39:22.921Z,7.10
2022-11-18T00:42:08.878Z,7.00
2022-11-18T00:44:38.548Z,7.00
2022-11-18T00:47:05.558Z,6.90
2022-11-18T00:49:32.329Z,7.00
2022-11-18T00:51:59.108Z,7.00
2022-11-18T00:54:25.850Z,6.90
2022-11-18T00:56:52.561Z,6.90
2022-11-18T00:59:19.685Z,6.80
2022-11-18T01:01:46.668Z,6.80
2022-11-18T01:04:13.404Z,6.80
2022-11-18T01:06:40.496Z,6.80
2022-11-18T01:09:07.407Z,6.80
2022-11-18T01:14:20.299Z,6.80
2022-11-18T01:16:51.244Z,6.80
2022-11-18T01:19:19.113Z,6.80
2022-11-18T01:21:46.105Z,6.80
2022-11-18T01:24:13.095Z,6.90
2022-11-18T01:26:39.884Z,6.90
2022-11-18T01:29:06.881Z,6.80
2022-11-18T01:31:33.575Z,6.90
2022-11-18T01:34:00.325Z,6.90
2022-11-18T01:36:28.609Z,6.90
2022-11-18T01:38:56.364Z,6.90
2022-11-18T01:41:26.030Z,6.90
2022-11-18T01:43:58.620Z,6.90
2022-11-18T01:46:27.899Z,7.00
2022-11-18T01:48:57.057Z,7.00
2022-11-18T01:51:36.574Z,7.00
2022-11-18T01:54:09.487Z,7.10
2022-11-18T01:56:43.858Z,7.10
2022-11-18T01:59:18.579Z,7.10
2022-11-18T02:01:46.330Z,7.20
2022-11-18T02:04:15.193Z,7.20
2022-11-18T02:06:46.293Z,7.20
2022-11-18T02:09:15.569Z,7.30
2022-11-18T02:11:54.429Z,7.30
2022-11-18T02:14:40.301Z,7.30
2022-11-18T02:17:35.843Z,7.30
2022-11-18T02:20:24.200Z,7.30
2022-11-18T02:23:09.699Z,7.40
2022-11-18T02:25:54.436Z,7.40
2022-11-18T02:28:43.935Z,7.40
2022-11-18T02:31:10.629Z,7.40
2022-11-18T02:33:58.317Z,7.40
2022-11-18T02:36:48.123Z,7.50
2022-11-18T02:39:22.937Z,7.60
2022-11-18T02:41:51.934Z,7.60
2022-11-18T02:44:21.783Z,7.50
2022-11-18T02:46:53.070Z,7.60
2022-11-18T02:49:28.940Z,7.70
2022-11-18T02:51:57.467Z,7.60
2022-11-18T02:54:26.901Z,7.70
2022-11-18T02:56:55.247Z,7.70
2022-11-18T02:59:22.109Z,7.60
2022-11-18T03:01:48.883Z,7.70
2022-11-18T03:04:17.105Z,7.70
2022-11-18T03:06:53.103Z,7.70
2022-11-18T03:09:33.825Z,7.70
2022-11-18T03:12:12.348Z,7.60
2022-11-18T03:15:04.162Z,7.50
2022-11-18T03:17:39.701Z,7.50
2022-11-18T03:20:06.395Z,7.40
2022-11-18T03:22:36.128Z,7.40
2022-11-18T03:25:02.846Z,7.40
2022-11-18T03:27:40.170Z,7.40
2022-11-18T03:30:10.559Z,7.40
2022-11-18T03:32:42.929Z,7.40
2022-11-18T03:35:19.026Z,7.40
2022-11-18T03:37:47.915Z,7.40
2022-11-18T03:40:29.462Z,7.40
2022-11-18T03:43:21.689Z,7.30
2022-11-18T03:46:01.646Z,7.30
2022-11-18T03:48:47.369Z,7.30
2022-11-18T03:51:19.285Z,7.30
2022-11-18T03:53:55.184Z,7.30
2022-11-18T03:56:29.317Z,7.20
2022-11-18T03:59:00.041Z,7.30
2022-11-18T04:01:46.011Z,7.40
2022-11-18T04:04:14.265Z,7.30
2022-11-18T04:07:02.256Z,7.30
2022-11-18T04:09:40.213Z,7.30
2022-11-18T04:12:11.814Z,7.30
2022-11-18T04:14:41.489Z,7.30
2022-11-18T04:17:10.606Z,7.30
2022-11-18T04:19:37.602Z,7.20
2022-11-18T04:22:04.534Z,7.20
2022-11-18T04:24:31.364Z,7.30
2022-11-18T04:26:58.139Z,7.40
2022-11-18T04:31:52.016Z,7.20
2022-11-18T04:34:18.750Z,7.30
2022-11-18T04:36:45.566Z,7.40
2022-11-18T04:39:12.408Z,7.40
2022-11-18T04:41:57.479Z,7.50
2022-11-18T04:44:32.265Z,7.50
2022-11-18T04:47:01.188Z,7.50
2022-11-18T04:49:28.516Z,7.60
2022-11-18T04:51:56.188Z,7.50
2022-11-18T04:54:24.543Z,7.50
2022-11-18T04:56:52.374Z,7.50
2022-11-18T04:59:22.289Z,7.30
2022-11-18T05:01:50.234Z,7.40
2022-11-18T05:04:23.078Z,7.50
2022-11-18T05:06:49.836Z,7.50
2022-11-18T05:09:18.067Z,7.40
2022-11-18T05:12:03.771Z,7.40
2022-11-18T05:14:30.797Z,7.30
2022-11-18T05:16:59.438Z,7.30
2022-11-18T05:19:26.436Z,7.30
2022-11-18T05:21:53.971Z,7.30
2022-11-18T05:24:24.052Z,7.30
2022-11-18T05:26:52.026Z,7.20
2022-11-18T05:29:20.268Z,7.20
2022-11-18T05:31:48.318Z,7.30
2022-11-18T05:34:16.249Z,7.30
2022-11-18T05:36:43.244Z,7.20
2022-11-18T05:39:10.265Z,7.30
2022-11-18T05:41:55.654Z,7.20
2022-11-18T05:44:22.393Z,7.20
2022-11-18T05:46:49.152Z,7.20
2022-11-18T05:49:16.304Z,7.20
2022-11-18T05:51:43.359Z,7.10
2022-11-18T05:54:13.166Z,7.00
2022-11-18T05:56:42.008Z,7.10
2022-11-18T05:59:08.736Z,7.20
2022-11-18T06:01:38.505Z,7.10
2022-11-18T06:04:11.435Z,7.10
2022-11-18T06:06:38.335Z,7.10
2022-11-18T06:09:07.433Z,7.10
2022-11-18T06:11:43.110Z,7.10
2022-11-18T06:14:19.630Z,7.10
2022-11-18T06:16:51.971Z,7.20
2022-11-18T06:19:19.372Z,7.20
2022-11-18T06:21:47.223Z,7.20
2022-11-18T06:24:14.574Z,7.20
2022-11-18T06:26:42.704Z,7.20
2022-11-18T06:29:12.122Z,7.10
2022-11-18T06:34:05.932Z,7.10
2022-11-18T06:36:32.612Z,7.10
2022-11-18T06:39:04.306Z,7.00
2022-11-18T06:41:31.589Z,7.00
2022-11-18T06:43:58.441Z,6.90
2022-11-18T06:46:43.944Z,6.90
2022-11-18T06:49:11.186Z,6.90
2022-11-18T06:51:39.020Z,6.90
2022-11-18T06:54:10.631Z,6.90
2022-11-18T06:56:38.080Z,6.80
2022-11-18T06:59:05.348Z,6.90
2022-11-18T07:01:35.571Z,6.80
2022-11-18T07:04:02.618Z,6.80
2022-11-18T07:06:31.868Z,6.70
2022-11-18T07:09:05.167Z,6.70
2022-11-18T07:16:27.635Z,6.70
2022-11-18T07:18:55.987Z,6.70
2022-11-18T07:21:26.411Z,6.70
2022-11-18T07:23:53.755Z,6.80
2022-11-18T07:26:20.795Z,6.70
2022-11-18T07:28:47.954Z,6.70
2022-11-18T07:31:17.315Z,6.80
2022-11-18T07:33:45.341Z,6.80
2022-11-18T07:36:15.002Z,6.70
2022-11-18T07:38:42.382Z,6.70
2022-11-18T07:41:17.679Z,6.80
2022-11-18T07:43:45.699Z,6.80
2022-11-18T07:46:13.769Z,6.80
2022-11-18T07:48:41.673Z,6.80
2022-11-18T07:51:08.791Z,6.80
2022-11-18T07:53:36.577Z,6.70
2022-11-18T07:56:04.590Z,6.50
2022-11-18T07:58:31.389Z,6.50
2022-11-18T08:00:58.777Z,6.50
2022-11-18T08:03:27.779Z,6.60
2022-11-18T08:05:59.718Z,6.70
2022-11-18T08:08:26.850Z,6.50
2022-11-18T08:10:57.581Z,6.70
2022-11-18T08:13:25.035Z,6.70
2022-11-18T08:15:52.545Z,6.50
2022-11-18T08:18:19.718Z,6.50
2022-11-18T08:20:46.489Z,6.60
2022-11-18T08:23:14.263Z,6.50
2022-11-18T08:25:42.111Z,6.60
2022-11-18T08:28:09.742Z,6.40
2022-11-18T08:30:36.673Z,6.50
2022-11-18T08:33:04.553Z,6.60
2022-11-18T08:35:32.550Z,6.60
2022-11-18T08:37:59.447Z,6.40
2022-11-18T08:40:26.307Z,6.40
2022-11-18T08:45:20.265Z,6.60
2022-11-18T08:47:47.036Z,6.60
2022-11-18T08:50:13.757Z,6.60
2022-11-18T08:52:40.517Z,6.70
2022-11-18T08:55:07.525Z,6.80
2022-11-18T08:57:34.266Z,6.80
2022-11-18T09:00:01.137Z,6.70
2022-11-18T09:02:27.902Z,6.60
2022-11-18T09:04:54.701Z,6.60
2022-11-18T09:07:22.182Z,6.70
2022-11-18T09:15:12.962Z,6.80
2022-11-18T09:17:34.492Z,6.50
2022-11-18T09:20:01.307Z,6.50
2022-11-18T09:22:28.011Z,6.50
2022-11-18T09:24:54.756Z,6.50
2022-11-18T09:27:21.603Z,6.60
2022-11-18T09:29:48.373Z,6.50
2022-11-18T09:32:15.110Z,6.50
2022-11-18T09:34:41.843Z,6.50
2022-11-18T09:37:08.577Z,6.50
2022-11-18T09:39:36.982Z,6.50
2022-11-18T09:42:25.335Z,6.50
2022-11-18T09:45:14.641Z,6.50
2022-11-18T09:47:43.974Z,6.50
2022-11-18T09:53:12.257Z,6.20
2022-11-18T09:55:39.740Z,6.30
2022-11-18T09:58:07.110Z,6.30
2022-11-18T10:00:34.748Z,6.30
2022-11-18T10:03:16.122Z,6.40
2022-11-18T10:05:56.942Z,6.50
2022-11-18T10:08:38.475Z,6.50
2022-11-18T10:11:18.313Z,6.40
2022-11-18T10:13:59.830Z,6.30
2022-11-18T10:16:55.222Z,6.20
2022-11-18T10:19:52.711Z,6.20
2022-11-18T10:23:04.668Z,6.30
2022-11-18T10:25:31.387Z,6.20
2022-11-18T10:28:14.046Z,6.30
2022-11-18T10:30:40.791Z,6.20
2022-11-18T10:33:22.572Z,6.30
2022-11-18T10:35:50.163Z,6.30
2022-11-18T10:38:21.072Z,6.30
2022-11-18T10:41:01.261Z,6.10
2022-11-18T10:43:49.254Z,6.10
2022-11-18T10:46:32.348Z,5.80
2022-11-18T10:49:11.292Z,5.90
2022-11-18T10:51:43.606Z,6.00
2022-11-18T10:54:16.136Z,5.90
2022-11-18T10:56:53.403Z,6.00
2022-11-18T10:59:29.227Z,6.10
2022-11-18T11:02:12.787Z,6.10
2022-11-18T11:04:40.609Z,5.90
2022-11-18T11:07:18.127Z,5.90
2022-11-18T11:12:17.984Z,5.80
2022-11-18T11:14:54.510Z,5.80
2022-11-18T11:17:41.790Z,5.90
2022-11-18T11:20:17.646Z,5.90
2022-11-18T11:22:45.426Z,5.80
2022-11-18T11:25:17.826Z,5.70
2022-11-18T11:31:23.534Z,5.80
2022-11-18T11:34:16.503Z,5.70
2022-11-18T11:36:52.397Z,5.60
2022-11-18T11:39:51.660Z,5.50
2022-11-18T11:42:51.881Z,5.60
2022-11-18T11:45:39.965Z,5.60
2022-11-18T11:48:24.708Z,5.50
2022-11-18T11:51:04.321Z,5.50
2022-11-18T11:56:13.312Z,5.60
2022-11-18T11:59:02.292Z,5.50
2022-11-18T12:02:01.113Z,5.30
2022-11-18T12:04:38.728Z,5.30
2022-11-18T12:07:12.685Z,5.30
2022-11-18T12:09:54.489Z,5.40
2022-11-18T12:12:36.268Z,5.50
2022-11-18T12:15:30.647Z,5.30
2022-11-18T12:18:16.196Z,5.40
2022-11-18T12:20:44.990Z,5.40
2022-11-18T12:23:26.821Z,5.30
2022-11-18T12:26:04.331Z,5.30
2022-11-18T12:28:43.054Z,5.30
2022-11-18T12:31:18.775Z,5.30
2022-11-18T12:33:51.448Z,5.40
2022-11-18T12:36:39.922Z,5.30
2022-11-18T12:39:27.646Z,5.30
2022-11-18T12:42:24.126Z,5.10
2022-11-18T12:44:52.442Z,5.10
2022-11-18T12:47:41.291Z,5.20
2022-11-18T12:50:15.851Z,5.00
2022-11-18T12:55:22.602Z,4.90
2022-11-18T12:57:49.708Z,5.00
2022-11-18T13:00:52.674Z,5.10
2022-11-18T13:03:25.307Z,5.10
2022-11-18T13:06:01.507Z,5.10
2022-11-18T13:08:29.038Z,5.10
2022-11-18T13:11:20.802Z,5.10
2022-11-18T13:13:47.583Z,5.20
2022-11-18T13:16:38.708Z,5.20
2022-11-18T13:19:05.998Z,5.20
2022-11-18T13:21:51.351Z,5.10
2022-11-18T13:24:21.075Z,4.80
2022-11-18T13:26:53.569Z,4.90
2022-11-18T13:29:52.602Z,4.80
2022-11-18T13:32:24.205Z,4.80
2022-11-18T13:35:10.750Z,4.80
2022-11-18T13:37:55.421Z,4.60
2022-11-18T13:40:31.713Z,4.80
2022-11-18T13:42:58.492Z,4.70
2022-11-18T13:45:28.219Z,4.60
2022-11-18T13:48:07.384Z,4.60
2022-11-18T13:50:36.123Z,4.40
2022-11-18T13:53:27.497Z,4.40
2022-11-18T13:56:05.301Z,4.40
2022-11-18T14:01:47.100Z,4.50
2022-11-18T14:04:21.158Z,4.40
2022-11-18T14:06:48.303Z,4.40
2022-11-18T14:09:29.769Z,4.50
2022-11-18T14:12:14.689Z,4.30
2022-11-18T14:14:42.842Z,4.30
2022-11-18T14:17:21.871Z,4.20
2022-11-18T14:19:53.844Z,4.20
2022-11-18T14:22:26.904Z,4.40
2022-11-18T14:25:24.529Z,4.40
2022-11-18T14:27:53.839Z,4.20
2022-11-18T14:30:32.868Z,4.30
2022-11-18T14:33:18.548Z,4.40
2022-11-18T14:36:01.479Z,4.20
2022-11-18T14:38:58.027Z,4.10
2022-11-18T14:44:14.577Z,3.90
2022-11-18T14:46:44.667Z,4.10
2022-11-18T14:49:16.828Z,4.00
2022-11-18T14:51:44.922Z,4.00
2022-11-18T14:54:19.382Z,3.80
2022-11-18T14:56:48.789Z,3.80
2022-11-18T14:59:17.872Z,3.80
2022-11-18T15:01:45.806Z,3.90
2022-11-18T15:04:13.445Z,3.80
2022-11-18T15:06:40.403Z,3.70
2022-11-18T15:09:08.066Z,3.60
2022-11-18T15:11:35.450Z,3.70
2022-11-18T15:14:03.441Z,3.70
2022-11-18T15:16:32.199Z,3.80
2022-11-18T15:19:01.843Z,3.80
2022-11-18T15:23:55.913Z,3.60
2022-11-18T15:26:35.619Z,3.70
2022-11-18T15:29:03.321Z,3.80
2022-11-18T15:31:30.174Z,3.70
2022-11-18T15:41:27.169Z,3.60
2022-11-18T15:43:55.744Z,3.60
2022-11-18T15:46:24.282Z,3.50
2022-11-18T15:48:55.186Z,3.60
2022-11-18T15:51:23.345Z,3.40
2022-11-18T15:53:50.250Z,2.90
2022-11-18T15:56:22.941Z,2.90
2022-11-18T15:58:56.746Z,3.10
2022-11-18T16:01:25.424Z,2.90
2022-11-18T16:03:52.339Z,3.10
2022-11-18T16:06:19.132Z,3.10
2022-11-18T16:11:36.027Z,3.40
2022-11-18T16:14:02.815Z,3.50
2022-11-18T16:16:30.260Z,3.40
2022-11-18T16:19:02.559Z,3.40
2022-11-18T16:21:32.687Z,3.50
2022-11-18T16:24:01.640Z,3.50
2022-11-18T16:26:30.848Z,3.20
2022-11-18T16:28:57.999Z,3.00
2022-11-18T16:31:40.321Z,3.00
2022-11-18T16:34:08.643Z,2.90
2022-11-18T16:36:36.785Z,2.80
2022-11-18T16:39:08.944Z,2.80
2022-11-18T16:41:36.357Z,2.90
2022-11-18T16:44:08.275Z,2.60
2022-11-18T16:46:36.949Z,2.50
2022-11-18T16:49:04.833Z,2.70
2022-11-18T16:51:33.949Z,2.60
2022-11-18T16:54:06.906Z,2.70
2022-11-18T16:56:35.808Z,2.60
2022-11-18T16:59:11.084Z,2.50
2022-11-18T17:01:37.925Z,2.30
2022-11-18T17:04:04.838Z,2.40
2022-11-18T17:06:32.605Z,2.40
2022-11-18T17:09:00.220Z,2.20
2022-11-18T17:11:27.244Z,2.40
2022-11-18T17:13:57.964Z,2.20
2022-11-18T17:16:26.772Z,2.30
2022-11-18T17:18:58.361Z,2.10
2022-11-18T17:21:26.772Z,2.10
2022-11-18T17:23:53.657Z,2.10
2022-11-18T17:26:23.742Z,2.40
2022-11-18T17:28:50.709Z,2.30
2022-11-18T17:31:20.156Z,2.00
2022-11-18T17:33:48.371Z,2.00
2022-11-18T17:36:18.750Z,2.00
2022-11-18T17:38:47.812Z,2.00
2022-11-18T17:41:36.617Z,2.00
2022-11-18T17:44:05.712Z,2.10
2022-11-18T17:46:37.793Z,2.00
2022-11-18T17:49:07.854Z,2.00
2022-11-18T17:51:34.590Z,1.80
2022-11-18T17:54:01.755Z,1.90
2022-11-18T17:56:28.519Z,1.80
2022-11-18T18:01:23.407Z,1.90
2022-11-18T18:03:50.267Z,1.80
2022-11-18T18:06:17.988Z,1.80
2022-11-18T18:08:44.757Z,1.80
2022-11-18T18:11:19.155Z,1.80
2022-11-18T18:14:04.919Z,1.90
2022-11-18T18:16:33.643Z,1.90
2022-11-18T18:19:02.130Z,1.90
2022-11-18T18:23:56.502Z,1.70
2022-11-18T18:26:29.704Z,1.60
2022-11-18T18:28:58.533Z,1.80
2022-11-18T18:31:25.533Z,1.50
2022-11-18T18:33:52.526Z,1.70
2022-11-18T18:36:20.277Z,1.50
2022-11-18T18:38:47.487Z,1.40
2022-11-18T18:41:19.972Z,1.40
2022-11-18T18:43:47.101Z,1.30
2022-11-18T18:46:28.724Z,1.50
2022-11-18T18:49:06.237Z,1.60
2022-11-18T18:51:43.922Z,1.50
2022-11-18T18:54:12.729Z,1.50
2022-11-18T18:56:40.214Z,1.40
2022-11-18T18:59:07.745Z,1.40
2022-11-18T19:04:04.669Z,1.50
2022-11-18T19:06:58.938Z,1.40
2022-11-18T19:09:24.972Z,1.40
2022-11-18T19:12:10.561Z,1.40
2022-11-18T19:14:37.710Z,1.40
2022-11-18T19:17:10.058Z,1.40
2022-11-18T19:19:58.569Z,1.20
2022-11-18T19:22:25.428Z,1.40
2022-11-18T19:24:52.841Z,1.50
2022-11-18T19:27:20.682Z,1.40
2022-11-18T19:32:15.262Z,1.50
2022-11-18T19:34:43.113Z,1.60
2022-11-18T19:39:38.596Z,1.60
2022-11-18T19:42:05.902Z,1.30
2022-11-18T19:46:59.793Z,1.20
2022-11-18T19:49:26.557Z,1.30
2022-11-18T19:51:53.332Z,1.40
2022-11-18T19:54:20.114Z,1.50
2022-11-18T19:56:46.948Z,1.30
2022-11-18T19:59:13.815Z,1.20
2022-11-18T20:01:41.082Z,1.30
2022-11-18T20:04:07.945Z,1.20
2022-11-18T20:06:36.242Z,1.20
2022-11-18T20:09:07.203Z,1.20
2022-11-18T20:14:01.485Z,1.40
2022-11-18T20:16:28.280Z,1.20
2022-11-18T20:18:57.755Z,1.30
2022-11-18T20:21:26.412Z,1.20
2022-11-18T20:24:04.243Z,1.10
2022-11-18T20:26:34.330Z,1.10
2022-11-18T20:29:01.704Z,1.10
2022-11-18T20:31:29.279Z,1.20
2022-11-18T20:33:56.994Z,1.20
2022-11-18T20:36:26.955Z,1.20
2022-11-18T20:39:01.897Z,1.30
2022-11-18T20:41:32.485Z,1.20
2022-11-18T20:44:00.239Z,1.40
2022-11-18T20:46:27.474Z,1.20
2022-11-18T20:48:55.412Z,1.10
2022-11-18T20:51:24.124Z,1.10
2022-11-18T20:53:51.932Z,1.20
2022-11-18T20:56:21.157Z,1.10
2022-11-18T20:58:48.565Z,1.20
2022-11-18T21:01:25.070Z,1.10
2022-11-18T21:04:00.734Z,1.00
2022-11-18T21:06:29.534Z,1.10
2022-11-18T21:09:02.587Z,1.00
2022-11-18T21:11:30.382Z,0.90
2022-11-18T21:16:51.529Z,0.80
2022-11-18T21:24:19.211Z,1.00
2022-11-18T21:26:47.817Z,1.00
2022-11-18T21:29:15.964Z,1.00
2022-11-18T21:31:44.118Z,0.90
2022-11-18T21:34:11.498Z,1.00
2022-11-18T21:36:44.321Z,1.10
2022-11-18T21:39:14.315Z,1.10
2022-11-18T21:41:41.284Z,1.00
2022-11-18T21:44:10.356Z,1.10
2022-11-18T21:46:38.927Z,0.90
2022-11-18T21:49:06.735Z,0.90
2022-11-18T21:51:34.953Z,0.80
2022-11-18T21:54:02.261Z,0.80
2022-11-18T21:56:33.356Z,0.80
2022-11-18T21:59:01.456Z,0.70
2022-11-18T22:01:33.429Z,0.90
2022-11-18T22:04:02.665Z,0.90
2022-11-18T22:06:32.574Z,0.80
2022-11-18T22:09:00.003Z,0.80
2022-11-18T22:11:27.555Z,0.70
2022-11-18T22:16:23.520Z,0.90
2022-11-18T22:18:57.813Z,1.00
2022-11-18T22:23:59.180Z,1.00
2022-11-18T22:26:26.040Z,1.00
2022-11-18T22:28:54.632Z,0.90
2022-11-18T22:31:23.193Z,1.00
2022-11-18T22:33:51.265Z,1.00
2022-11-18T22:36:20.129Z,0.90
2022-11-18T22:38:47.450Z,1.00
2022-11-18T22:41:33.956Z,1.10
2022-11-18T22:44:06.961Z,1.10
2022-11-18T22:46:34.990Z,1.00
2022-11-18T22:49:01.822Z,0.90
2022-11-18T22:59:13.476Z,0.90
2022-11-18T23:01:40.504Z,0.80
2022-11-18T23:04:07.570Z,0.70
2022-11-18T23:06:34.636Z,0.80
2022-11-18T23:09:01.519Z,0.70
2022-11-18T23:11:46.775Z,0.90
2022-11-18T23:16:42.581Z,1.00
2022-11-18T23:19:12.798Z,0.70
2022-11-18T23:21:40.180Z,0.90
2022-11-18T23:24:07.800Z,0.80
2022-11-18T23:31:28.975Z,0.80
2022-11-18T23:33:57.036Z,0.70
2022-11-18T23:36:25.075Z,0.80
2022-11-18T23:38:52.738Z,0.90
2022-11-18T23:41:20.163Z,0.90
2022-11-18T23:43:48.369Z,0.90
2022-11-18T23:46:16.934Z,0.90
2022-11-18T23:48:44.934Z,0.90
2022-11-18T23:51:17.227Z,0.90
2022-11-18T23:53:45.445Z,0.90
2022-11-18T23:56:15.218Z,0.90
2022-11-18T23:58:43.951Z,0.80
